createdAt,value
2019-01-12T00:01:38.040Z,-0.30
2019-01-12T00:06:42.589Z,-0.30
2019-01-12T00:11:50.202Z,-0.30
2019-01-12T00:16:55.118Z,-0.20
2019-01-12T00:21:59.661Z,-0.20
2019-01-12T00:27:04.917Z,-0.20
2019-01-12T00:32:12.143Z,-0.20
2019-01-12T00:37:16.965Z,-0.10
2019-01-12T00:42:23.109Z,-0.10
2019-01-12T00:47:28.159Z,0.00
2019-01-12T00:52:34.517Z,0.00
2019-01-12T00:57:39.057Z,0.00
2019-01-12T01:02:43.476Z,0.00
2019-01-12T01:07:48.485Z,0.00
2019-01-12T01:12:57.009Z,0.00
2019-01-12T01:18:02.047Z,0.00
2019-01-12T01:23:06.511Z,0.10
2019-01-12T01:28:13.291Z,0.10
2019-01-12T01:33:18.156Z,0.10
2019-01-12T01:38:22.897Z,0.10
2019-01-12T01:43:28.919Z,0.10
2019-01-12T01:48:33.570Z,0.10
2019-01-12T01:53:38.957Z,0.10
2019-01-12T01:58:45.058Z,0.00
2019-01-12T02:03:50.206Z,0.00
2019-01-12T02:08:56.399Z,0.00
2019-01-12T02:14:03.155Z,0.00
2019-01-12T02:19:08.322Z,0.00
2019-01-12T02:24:13.384Z,0.00
2019-01-12T02:29:21.255Z,0.10
2019-01-12T02:34:26.698Z,0.10
2019-01-12T02:39:33.865Z,0.10
2019-01-12T02:44:40.629Z,0.10
2019-01-12T02:49:47.887Z,0.10
2019-01-12T02:54:52.400Z,0.10
2019-01-12T02:59:57.143Z,0.10
2019-01-12T03:05:02.733Z,0.10
2019-01-12T03:10:09.762Z,0.20
2019-01-12T03:15:16.633Z,0.20
2019-01-12T03:20:22.792Z,0.30
2019-01-12T03:25:29.171Z,0.20
2019-01-12T03:30:36.399Z,0.30
2019-01-12T03:35:40.704Z,0.30
2019-01-12T03:40:45.221Z,0.30
2019-01-12T03:45:50.841Z,0.30
2019-01-12T03:50:55.453Z,0.40
2019-01-12T03:56:00.770Z,0.40
2019-01-12T04:01:05.615Z,0.40
2019-01-12T04:06:10.270Z,0.40
2019-01-12T04:11:15.015Z,0.30
2019-01-12T04:16:22.495Z,0.40
2019-01-12T04:21:27.169Z,0.30
2019-01-12T04:26:31.804Z,0.40
2019-01-12T04:31:36.919Z,0.40
2019-01-12T04:36:45.591Z,0.40
2019-01-12T04:41:50.767Z,0.50
2019-01-12T04:46:56.313Z,0.50
2019-01-12T04:52:03.415Z,0.50
2019-01-12T04:57:07.913Z,0.50
2019-01-12T05:02:12.552Z,0.60
2019-01-12T05:07:22.026Z,0.60
2019-01-12T05:12:31.991Z,0.60
2019-01-12T05:17:36.517Z,0.60
2019-01-12T05:22:41.763Z,0.70
2019-01-12T05:27:46.774Z,0.80
2019-01-12T05:32:51.960Z,0.80
2019-01-12T05:37:56.332Z,0.80
2019-01-12T05:43:01.646Z,0.70
2019-01-12T05:48:10.110Z,0.70
2019-01-12T05:53:16.876Z,0.70
2019-01-12T05:58:21.604Z,0.70
2019-01-12T06:03:26.683Z,0.70
2019-01-12T06:08:34.492Z,0.70
2019-01-12T06:13:39.075Z,0.70
2019-01-12T06:18:49.034Z,0.80
2019-01-12T06:23:53.825Z,0.80
2019-01-12T06:28:59.492Z,0.80
2019-01-12T06:34:05.656Z,0.80
2019-01-12T06:39:10.928Z,0.80
2019-01-12T06:44:16.074Z,0.70
2019-01-12T06:49:21.641Z,0.70
2019-01-12T06:54:26.435Z,0.80
2019-01-12T06:59:32.461Z,0.70
2019-01-12T07:04:37.240Z,0.80
2019-01-12T07:09:42.618Z,0.80
2019-01-12T07:14:47.764Z,0.80
2019-01-12T07:19:52.854Z,0.80
2019-01-12T07:24:57.921Z,0.80
2019-01-12T07:30:03.537Z,0.80
2019-01-12T07:35:08.367Z,1.00
2019-01-12T07:40:13.508Z,1.00
2019-01-12T07:45:18.749Z,1.00
2019-01-12T07:50:23.626Z,1.10
2019-01-12T07:55:29.203Z,1.10
2019-01-12T08:00:34.136Z,1.20
2019-01-12T08:05:39.020Z,1.30
2019-01-12T08:10:43.564Z,1.30
2019-01-12T08:15:49.179Z,1.50
2019-01-12T08:20:54.058Z,1.50
2019-01-12T08:25:59.605Z,1.60
2019-01-12T08:31:05.314Z,1.60
2019-01-12T08:36:10.847Z,1.60
2019-01-12T08:41:19.575Z,1.80
2019-01-12T08:46:26.449Z,1.90
2019-01-12T08:51:31.407Z,1.90
2019-01-12T08:56:38.436Z,2.10
2019-01-12T09:01:43.429Z,2.30
2019-01-12T09:06:49.124Z,2.30
2019-01-12T09:11:53.912Z,2.40
2019-01-12T09:16:58.769Z,2.50
2019-01-12T09:22:04.497Z,2.40
2019-01-12T09:27:09.327Z,2.50
2019-01-12T09:32:14.587Z,2.60
2019-01-12T09:37:19.262Z,2.60
2019-01-12T09:42:23.702Z,2.90
2019-01-12T09:47:29.931Z,3.10
2019-01-12T09:52:34.429Z,3.20
2019-01-12T09:57:39.210Z,3.30
2019-01-12T10:02:43.840Z,3.30
2019-01-12T10:07:48.657Z,3.30
2019-01-12T10:12:56.970Z,3.50
2019-01-12T10:18:01.992Z,3.70
2019-01-12T10:23:06.738Z,3.60
2019-01-12T10:28:13.031Z,3.90
2019-01-12T10:33:17.889Z,4.30
2019-01-12T10:38:23.257Z,4.00
2019-01-12T10:43:28.356Z,3.90
2019-01-12T10:48:34.194Z,3.60
2019-01-12T10:53:38.577Z,3.50
2019-01-12T10:58:43.178Z,3.50
2019-01-12T11:03:48.056Z,3.70
2019-01-12T11:08:52.706Z,4.00
2019-01-12T11:13:57.732Z,4.20
2019-01-12T11:19:02.401Z,4.10
2019-01-12T11:24:07.271Z,3.70
2019-01-12T11:29:11.889Z,3.50
2019-01-12T11:34:16.889Z,3.40
2019-01-12T11:39:21.839Z,3.30
2019-01-12T11:44:27.097Z,3.30
2019-01-12T11:49:31.785Z,3.10
2019-01-12T11:54:36.856Z,3.20
2019-01-12T11:59:41.411Z,3.20
2019-01-12T12:04:46.284Z,3.10
2019-01-12T12:09:50.788Z,3.10
2019-01-12T12:14:55.503Z,3.00
2019-01-12T12:20:00.221Z,2.90
2019-01-12T12:25:05.368Z,2.90
2019-01-12T12:30:19.290Z,3.00
2019-01-12T12:35:24.022Z,2.90
2019-01-12T12:40:28.949Z,3.20
2019-01-12T12:45:35.473Z,3.20
2019-01-12T12:50:40.202Z,3.50
2019-01-12T12:55:45.673Z,3.80
2019-01-12T13:00:50.906Z,3.70
2019-01-12T13:05:55.788Z,3.70
2019-01-12T13:11:00.598Z,3.50
2019-01-12T13:16:05.196Z,3.40
2019-01-12T13:21:10.588Z,3.20
2019-01-12T13:26:15.527Z,3.40
2019-01-12T13:31:20.191Z,3.30
2019-01-12T13:36:25.457Z,3.40
2019-01-12T13:41:33.609Z,3.40
2019-01-12T13:46:39.891Z,3.50
2019-01-12T13:51:45.451Z,3.30
2019-01-12T13:56:52.327Z,3.30
2019-01-12T14:01:56.681Z,3.10
2019-01-12T14:07:04.150Z,2.90
2019-01-12T14:12:08.850Z,2.90
2019-01-12T14:17:13.652Z,2.80
2019-01-12T14:22:18.670Z,2.90
2019-01-12T14:27:23.710Z,2.80
2019-01-12T14:32:28.394Z,2.80
2019-01-12T14:37:33.236Z,2.60
2019-01-12T14:42:39.099Z,2.60
2019-01-12T14:47:44.934Z,2.60
2019-01-12T14:52:49.627Z,2.60
2019-01-12T14:58:01.945Z,2.50
2019-01-12T15:03:02.236Z,2.50
2019-01-12T15:08:06.496Z,2.50
2019-01-12T15:13:11.338Z,2.40
2019-01-12T15:18:16.323Z,2.40
2019-01-12T15:23:21.503Z,2.40
2019-01-12T15:28:26.282Z,2.30
2019-01-12T15:33:31.580Z,2.20
2019-01-12T15:38:36.066Z,2.20
2019-01-12T15:43:41.612Z,2.20
2019-01-12T15:48:48.775Z,2.20
2019-01-12T15:53:53.484Z,2.20
2019-01-12T15:59:00.270Z,2.20
2019-01-12T16:04:07.512Z,2.20
2019-01-12T16:09:12.298Z,2.20
2019-01-12T16:14:18.762Z,2.10
2019-01-12T16:19:23.354Z,2.20
2019-01-12T16:24:28.051Z,2.20
2019-01-12T16:29:32.937Z,2.20
2019-01-12T16:34:42.045Z,2.10
2019-01-12T16:39:47.003Z,2.00
2019-01-12T16:44:51.746Z,2.10
2019-01-12T16:49:56.203Z,2.10
2019-01-12T16:55:01.496Z,2.10
2019-01-12T17:00:09.302Z,2.10
2019-01-12T17:05:13.887Z,2.10
2019-01-12T17:10:20.094Z,2.10
2019-01-12T17:15:26.539Z,2.10
2019-01-12T17:20:31.335Z,2.10
2019-01-12T17:25:38.197Z,2.20
2019-01-12T17:30:42.755Z,2.20
2019-01-12T17:35:48.618Z,2.10
2019-01-12T17:40:53.051Z,2.20
2019-01-12T17:45:57.784Z,2.20
2019-01-12T17:51:02.655Z,2.20
2019-01-12T17:56:07.357Z,2.30
2019-01-12T18:01:15.387Z,2.40
2019-01-12T18:06:20.387Z,2.30
2019-01-12T18:11:25.130Z,2.30
2019-01-12T18:16:33.251Z,2.30
2019-01-12T18:21:37.918Z,2.20
2019-01-12T18:26:42.912Z,2.10
2019-01-12T18:31:47.895Z,2.10
2019-01-12T18:36:52.533Z,2.00
2019-01-12T18:41:58.530Z,1.90
2019-01-12T18:47:03.972Z,1.90
2019-01-12T18:52:08.718Z,1.80
2019-01-12T18:57:13.470Z,1.80
2019-01-12T19:02:19.836Z,1.70
2019-01-12T19:07:24.496Z,1.70
2019-01-12T19:12:30.220Z,1.60
2019-01-12T19:17:35.366Z,1.60
2019-01-12T19:22:40.166Z,1.60
2019-01-12T19:27:45.796Z,1.60
2019-01-12T19:32:50.129Z,1.60
2019-01-12T19:37:54.990Z,1.60
2019-01-12T19:43:01.371Z,1.60
2019-01-12T19:48:05.906Z,1.50
2019-01-12T19:53:10.525Z,1.50
2019-01-12T19:58:17.484Z,1.50
2019-01-12T20:03:22.663Z,1.40
2019-01-12T20:08:27.313Z,1.40
2019-01-12T20:13:32.384Z,1.40
2019-01-12T20:18:37.237Z,1.40
2019-01-12T20:23:41.599Z,1.40
2019-01-12T20:28:47.314Z,1.40
2019-01-12T20:34:05.485Z,1.40
2019-01-12T20:39:18.185Z,1.30
2019-01-12T20:45:05.491Z,1.40
2019-01-12T20:50:25.050Z,1.40
2019-01-12T20:56:04.312Z,1.40
2019-01-12T21:01:34.374Z,1.40
2019-01-12T21:07:09.989Z,1.40
2019-01-12T21:12:44.745Z,1.40
2019-01-12T21:17:51.359Z,1.40
2019-01-12T21:22:56.381Z,1.50
2019-01-12T21:28:01.415Z,1.50
2019-01-12T21:33:06.046Z,1.50
2019-01-12T21:38:10.778Z,1.50
2019-01-12T21:43:17.143Z,1.50
2019-01-12T21:48:22.003Z,1.50
2019-01-12T21:53:26.251Z,1.40
2019-01-12T21:58:31.900Z,1.40
2019-01-12T22:03:38.631Z,1.40
2019-01-12T22:08:45.811Z,1.40
2019-01-12T22:13:51.665Z,1.50
2019-01-12T22:18:57.880Z,1.40
2019-01-12T22:24:02.252Z,1.50
2019-01-12T22:29:06.961Z,1.40
2019-01-12T22:34:11.589Z,1.50
2019-01-12T22:39:16.488Z,1.50
2019-01-12T22:44:21.827Z,1.60
2019-01-12T22:49:26.389Z,1.60
2019-01-12T22:54:31.079Z,1.60
2019-01-12T22:59:35.812Z,1.60
2019-01-12T23:04:40.830Z,1.60
2019-01-12T23:09:45.700Z,1.70
2019-01-12T23:14:52.319Z,1.70
2019-01-12T23:19:57.086Z,1.70
2019-01-12T23:25:05.200Z,1.70
2019-01-12T23:30:11.416Z,1.70
2019-01-12T23:35:16.214Z,1.70
2019-01-12T23:40:21.979Z,1.80
2019-01-12T23:45:27.001Z,1.70
2019-01-12T23:50:31.955Z,1.70
2019-01-12T23:55:36.438Z,1.80
